Leaf River, Illinois
Current Conditions -  °F | °C
As of 2:15 PM on Thursday 23 Oct 2014 (Local Time) from KFEP Reporting Station
Overcast Overcast  
Wind Chill: 56°   Ceiling: 3700
Heat Index: 56°   Visibility: 10mi
Dew Point: 43°   Wind: 14mph
Humidity: 61%   Direction: 180°S
Pressure: 30.09"   Gusts: 20mph
Location:  42.13°N, 89.4°W
Report Text: KFEP 231915Z AUTO 18012G17KT 10SM OVC037 14/06 A3009 RMK AO2 T01360061
Loading
Personal Weather Stations






























Interactive Weather Map
Tropical Storm Tracking
New forecast layout! Learn more

10-Day Weather Forecast

Advertisements
Track Severe Weather on mobile